KPUB/PUB METAR and TAF weather

Enter ICAO airport designator
Station Type Date Time Source
KPUB METAR 2020/06/05 09:53 UTC NOAA

KPUB 050953Z AUTO 00000KT 10SM CLR 16/07 A3001 RMK AO2 SLP089 T01610067


Station Type Date Time Source
KPUB Decoded METAR 2020/06/05 09:53 UTC NOAA

PUEBLO MEMORIAL AIRPORT, CO, United States (KPUB) 38-17N 104-30W 1420M
Jun 05, 2020 - 05:53 AM EDT / 2020.06.05 0953 UTC
Wind: Calm:0
Visibility: 10 mile(s):0
Sky conditions: clear
Temperature: 61.0 F (16.1 C)
Dew Point: 44.1 F (6.7 C)
Relative Humidity: 53%
Pressure (altimeter): 30.01 in. Hg (1016 hPa)
ob: KPUB 050953Z AUTO 00000KT 10SM CLR 16/07 A3001 RMK AO2 SLP089 T01610067
cycle: 10

Station Type Date Time Source
KPUB TAF 2020/06/05 06:24 UTC NOAA

TAF KPUB 050521Z 0506/0606 VRB05KT P6SM SCT150
FM052000 16010KT P6SM FEW120 SCT200
FM052300 13014KT P6SM SCT120 BKN200
FM060200 02009KT P6SM SCT120 BKN200

Example: see airport list